Time;durP1;ratioP1;P1;durP2;ratioP2;P2;SDS_P1;SDS_P2;PMS_P1;PMS_P2;Temp;Humidity;BMP_temperature;BMP_pressure;BME280_temperature;BME280_humidity;BME280_pressure;Samples;Min_cycle;Max_cycle;Signal;HPM_P1;HPM_P2
2021/05/21 00:01:22;;;;;;;2.17;2.00;;;12.60;99.90;;;;;;6278588;22;20417;-49
2021/05/21 00:03:48;;;;;;;2.47;2.03;;;12.60;99.90;;;;;;6274863;22;20428;-50
2021/05/21 00:06:21;;;;;;;5.07;2.50;;;12.50;99.90;;;;;;6278269;22;20437;-49
2021/05/21 00:08:47;;;;;;;4.10;2.67;;;12.50;99.90;;;;;;6278320;22;20629;-50
2021/05/21 00:11:14;;;;;;;3.00;2.40;;;12.50;99.90;;;;;;6278507;22;20421;-46
2021/05/21 00:13:41;;;;;;;2.37;2.17;;;12.40;99.90;;;;;;6278823;22;20417;-49
2021/05/21 00:16:08;;;;;;;3.10;2.20;;;12.40;99.90;;;;;;6278540;22;20773;-47
2021/05/21 00:18:35;;;;;;;2.60;2.40;;;12.40;99.90;;;;;;6279390;22;20448;-46
2021/05/21 00:21:02;;;;;;;3.80;2.13;;;12.40;99.90;;;;;;6279165;22;20421;-49
2021/05/21 00:23:28;;;;;;;3.50;2.50;;;12.40;99.90;;;;;;6279740;22;20470;-49
2021/05/21 00:25:55;;;;;;;2.43;2.23;;;12.40;99.90;;;;;;6279465;22;20413;-50
2021/05/21 00:28:21;;;;;;;5.53;2.40;;;12.30;99.90;;;;;;6278879;22;20691;-48
2021/05/21 00:30:48;;;;;;;3.30;2.50;;;12.30;99.90;;;;;;6279242;22;20417;-48
2021/05/21 00:33:14;;;;;;;2.50;2.30;;;12.30;99.90;;;;;;6279548;22;20712;-46
2021/05/21 00:35:44;;;;;;;2.30;2.10;;;12.30;99.90;;;;;;6279877;22;20474;-47
2021/05/21 00:38:11;;;;;;;2.50;2.30;;;12.20;99.90;;;;;;6279576;22;20447;-49
2021/05/21 00:40:39;;;;;;;3.80;2.30;;;12.20;99.90;;;;;;6279021;22;20420;-48
2021/05/21 00:43:06;;;;;;;2.80;1.97;;;12.10;99.90;;;;;;6279949;22;20546;-50
2021/05/21 00:45:35;;;;;;;2.20;2.00;;;12.20;99.90;;;;;;6278858;22;20428;-47
2021/05/21 00:48:08;;;;;;;4.77;2.70;;;12.10;99.90;;;;;;6279602;22;20424;-49
2021/05/21 00:50:35;;;;;;;3.30;2.50;;;12.20;99.90;;;;;;6279152;22;20915;-53
2021/05/21 00:53:04;;;;;;;2.30;2.10;;;12.20;99.90;;;;;;6279486;22;20421;-52
2021/05/21 00:55:31;;;;;;;2.67;2.47;;;12.10;99.90;;;;;;6278850;22;20932;-48
2021/05/21 00:57:58;;;;;;;2.80;2.53;;;12.10;99.90;;;;;;6279575;22;20718;-51
2021/05/21 01:00:24;;;;;;;3.27;2.63;;;12.10;99.90;;;;;;6278252;22;20520;-51
2021/05/21 01:02:51;;;;;;;3.63;2.03;;;12.20;99.90;;;;;;6277512;22;20456;-50
2021/05/21 01:05:18;;;;;;;4.00;2.60;;;12.20;99.90;;;;;;6275394;22;20414;-49
2021/05/21 01:07:44;;;;;;;2.50;2.30;;;12.20;99.90;;;;;;6276858;22;20865;-55
2021/05/21 01:10:12;;;;;;;2.13;2.03;;;12.20;99.90;;;;;;6277899;22;20449;-54
2021/05/21 01:12:39;;;;;;;2.60;2.40;;;12.20;99.90;;;;;;6278310;22;20584;-56
2021/05/21 01:15:07;;;;;;;2.53;2.33;;;12.20;99.90;;;;;;6279048;22;20463;-52
2021/05/21 01:17:34;;;;;;;3.00;2.37;;;12.20;99.90;;;;;;6278879;22;20447;-52
2021/05/21 01:20:00;;;;;;;2.53;2.33;;;12.10;99.90;;;;;;6278641;22;20730;-52
2021/05/21 01:22:28;;;;;;;2.17;2.07;;;12.20;99.90;;;;;;6278483;22;20881;-53
2021/05/21 01:24:55;;;;;;;2.47;2.00;;;12.20;99.90;;;;;;6277996;22;20498;-50
2021/05/21 01:27:23;;;;;;;3.50;1.80;;;12.30;99.90;;;;;;6278919;22;20850;-48
2021/05/21 01:29:50;;;;;;;3.00;2.07;;;12.30;99.90;;;;;;6277826;22;20425;-53
2021/05/21 01:32:16;;;;;;;2.43;2.10;;;12.30;99.90;;;;;;6278801;22;20422;-50
2021/05/21 01:34:43;;;;;;;3.70;2.20;;;12.40;99.90;;;;;;6279375;22;20421;-46
2021/05/21 01:37:14;;;;;;;2.23;2.13;;;12.40;99.90;;;;;;6278519;22;20457;-50
2021/05/21 01:39:42;;;;;;;2.67;2.47;;;12.40;99.90;;;;;;6279428;22;20896;-52
2021/05/21 01:42:11;;;;;;;4.70;2.70;;;12.40;99.90;;;;;;6278655;22;20421;-52
2021/05/21 01:44:41;;;;;;;2.70;1.90;;;12.30;99.90;;;;;;6279271;22;20424;-49
2021/05/21 01:47:11;;;;;;;2.87;2.67;;;12.40;99.90;;;;;;6278019;22;20449;-49
2021/05/21 01:49:37;;;;;;;5.27;2.63;;;12.30;99.90;;;;;;6278130;22;20424;-48
2021/05/21 01:52:07;;;;;;;2.30;2.10;;;12.30;99.90;;;;;;6278440;22;20857;-49
2021/05/21 01:54:35;;;;;;;6.03;2.60;;;12.30;99.90;;;;;;6278582;22;20416;-49
2021/05/21 01:57:04;;;;;;;6.20;2.27;;;12.30;99.90;;;;;;6278541;22;20417;-47
2021/05/21 01:59:30;;;;;;;2.20;2.00;;;12.30;99.90;;;;;;6278156;22;20428;-54
2021/05/21 02:01:57;;;;;;;2.83;2.60;;;12.20;99.90;;;;;;6277983;22;20490;-54
2021/05/21 02:04:31;;;;;;;4.10;2.50;;;12.20;99.90;;;;;;6274871;22;20441;-52
2021/05/21 02:06:58;;;;;;;5.13;2.23;;;12.20;99.90;;;;;;6277375;22;20449;-48
2021/05/21 02:09:25;;;;;;;2.90;2.40;;;12.20;99.90;;;;;;6279161;22;20728;-50
2021/05/21 02:11:51;;;;;;;2.60;2.20;;;12.20;99.90;;;;;;6277859;22;20850;-53
2021/05/21 02:14:19;;;;;;;2.00;1.90;;;12.20;99.90;;;;;;6278846;22;20845;-55
2021/05/21 02:16:46;;;;;;;5.30;2.50;;;12.10;99.90;;;;;;6277761;22;20737;-53
2021/05/21 02:19:12;;;;;;;2.00;1.80;;;12.10;99.90;;;;;;6278288;22;20417;-55
2021/05/21 02:21:41;;;;;;;2.40;2.20;;;12.10;99.90;;;;;;6278045;22;20416;-55
2021/05/21 02:24:09;;;;;;;4.90;2.57;;;12.00;99.90;;;;;;6277868;22;20428;-53
2021/05/21 02:26:36;;;;;;;3.03;2.83;;;12.00;99.90;;;;;;6278639;22;20449;-52
2021/05/21 02:29:03;;;;;;;3.40;2.60;;;12.00;99.90;;;;;;6278448;22;20436;-49
2021/05/21 02:31:31;;;;;;;3.97;2.30;;;12.00;99.90;;;;;;6277802;22;20738;-50
2021/05/21 02:33:58;;;;;;;3.33;2.47;;;11.90;99.90;;;;;;6278874;22;20421;-53
2021/05/21 02:36:24;;;;;;;3.90;2.60;;;12.00;99.90;;;;;;6277804;22;20417;-52
2021/05/21 02:38:50;;;;;;;2.60;2.23;;;12.00;99.90;;;;;;6278124;22;20918;-50
2021/05/21 02:41:17;;;;;;;5.30;2.20;;;12.00;99.90;;;;;;6278815;22;20417;-53
2021/05/21 02:43:44;;;;;;;3.67;2.70;;;12.00;99.90;;;;;;6278975;22;20454;-48
2021/05/21 02:46:10;;;;;;;2.57;2.37;;;12.00;99.90;;;;;;6278437;22;20453;-48
2021/05/21 02:48:38;;;;;;;4.70;2.80;;;12.00;99.90;;;;;;6278295;22;20428;-51
2021/05/21 02:51:05;;;;;;;2.70;2.30;;;12.00;99.90;;;;;;6279087;22;20421;-51
2021/05/21 02:53:32;;;;;;;3.10;2.50;;;12.00;99.90;;;;;;6277770;22;20425;-49
2021/05/21 02:55:58;;;;;;;5.30;2.43;;;12.00;99.90;;;;;;6278571;22;20485;-48
2021/05/21 02:58:31;;;;;;;4.23;2.50;;;12.00;99.90;;;;;;6278076;22;20444;-57
2021/05/21 03:00:57;;;;;;;2.60;2.13;;;12.10;99.90;;;;;;6278648;22;20771;-53
2021/05/21 03:03:26;;;;;;;2.13;1.93;;;12.10;99.90;;;;;;6274445;22;20437;-55
2021/05/21 03:05:55;;;;;;;2.67;2.47;;;12.10;99.90;;;;;;6277667;22;20468;-56
2021/05/21 03:08:22;;;;;;;2.73;2.53;;;12.10;99.90;;;;;;6278883;22;20417;-49
2021/05/21 03:10:48;;;;;;;2.77;2.20;;;12.10;99.90;;;;;;6278619;22;20479;-48
2021/05/21 03:13:15;;;;;;;2.30;2.10;;;12.20;99.90;;;;;;6277949;22;20520;-50
2021/05/21 03:15:42;;;;;;;4.10;2.23;;;12.20;99.90;;;;;;6278146;22;20417;-50
2021/05/21 03:18:12;;;;;;;3.20;2.57;;;12.20;99.90;;;;;;6277376;22;20741;-50
2021/05/21 03:20:40;;;;;;;1.97;1.70;;;12.20;99.90;;;;;;6280797;22;20424;-53
2021/05/21 03:23:07;;;;;;;2.70;2.00;;;12.30;99.90;;;;;;6280648;22;20427;-52
2021/05/21 03:25:34;;;;;;;4.43;2.07;;;12.30;99.90;;;;;;6279935;22;20423;-50
2021/05/21 03:28:03;;;;;;;2.23;1.73;;;12.30;99.90;;;;;;6280166;22;20704;-52
2021/05/21 03:30:30;;;;;;;3.50;2.60;;;12.30;99.90;;;;;;6279598;22;20431;-52
2021/05/21 03:32:57;;;;;;;4.33;2.13;;;12.30;99.90;;;;;;6280478;22;20425;-47
2021/05/21 03:35:23;;;;;;;2.47;2.27;;;12.30;99.90;;;;;;6279879;22;20420;-48
2021/05/21 03:37:50;;;;;;;2.80;2.60;;;12.30;99.90;;;;;;6280188;22;20417;-49
2021/05/21 03:40:17;;;;;;;3.90;2.27;;;12.30;99.90;;;;;;6280192;22;20417;-51
2021/05/21 03:42:44;;;;;;;2.87;2.57;;;12.30;99.90;;;;;;6280500;22;20417;-52
2021/05/21 03:45:12;;;;;;;2.37;1.83;;;12.30;99.90;;;;;;6279947;22;20417;-52
2021/05/21 03:47:39;;;;;;;2.57;2.30;;;12.30;99.90;;;;;;6280179;22;20854;-54
2021/05/21 03:50:07;;;;;;;2.37;2.00;;;12.30;99.90;;;;;;6280062;22;20769;-54
2021/05/21 03:52:36;;;;;;;3.33;2.40;;;12.30;99.90;;;;;;6280137;22;20423;-53
2021/05/21 03:55:04;;;;;;;3.63;2.30;;;12.20;99.90;;;;;;6280501;22;20424;-55
2021/05/21 03:57:31;;;;;;;3.20;2.87;;;12.30;99.90;;;;;;6279629;22;20868;-55
2021/05/21 03:59:58;;;;;;;2.07;1.97;;;12.20;99.90;;;;;;6279873;22;20409;-55
2021/05/21 04:02:25;;;;;;;2.93;2.40;;;12.20;99.90;;;;;;6278713;22;20424;-54
2021/05/21 04:04:51;;;;;;;2.60;2.00;;;12.30;99.90;;;;;;6277272;22;20420;-51
2021/05/21 04:07:18;;;;;;;2.60;2.33;;;12.20;99.90;;;;;;6280179;22;20793;-49
2021/05/21 04:09:45;;;;;;;3.97;2.90;;;12.20;99.90;;;;;;6280100;22;20707;-55
2021/05/21 04:12:11;;;;;;;4.37;2.60;;;12.10;99.90;;;;;;6279095;22;20823;-55
2021/05/21 04:14:39;;;;;;;4.23;2.30;;;12.10;99.90;;;;;;6278897;22;20473;-50
2021/05/21 04:17:05;;;;;;;2.80;1.77;;;12.20;99.90;;;;;;6280121;22;20409;-49
2021/05/21 04:19:32;;;;;;;4.00;2.57;;;12.20;99.90;;;;;;6279525;22;20417;-51
2021/05/21 04:21:58;;;;;;;2.60;2.40;;;12.10;99.90;;;;;;6279665;22;20424;-49
2021/05/21 04:24:25;;;;;;;2.43;2.23;;;12.10;99.90;;;;;;6279832;22;20418;-50
2021/05/21 04:26:51;;;;;;;3.03;2.27;;;12.20;99.90;;;;;;6279688;22;20453;-51
2021/05/21 04:29:18;;;;;;;2.70;2.30;;;12.30;99.90;;;;;;6279834;22;20720;-50
2021/05/21 04:31:45;;;;;;;3.30;2.00;;;12.30;99.90;;;;;;6279288;22;20725;-46
2021/05/21 04:34:12;;;;;;;2.40;2.20;;;12.40;99.90;;;;;;6279100;22;20417;-49
2021/05/21 04:36:38;;;;;;;4.70;2.10;;;12.50;99.90;;;;;;6279709;22;20417;-49
2021/05/21 04:39:06;;;;;;;5.33;2.37;;;12.50;99.90;;;;;;6280233;22;20900;-53
2021/05/21 04:41:33;;;;;;;2.57;2.30;;;12.60;99.90;;;;;;6279742;22;20424;-53
2021/05/21 04:43:59;;;;;;;3.50;2.30;;;12.60;99.90;;;;;;6279151;22;20858;-57
2021/05/21 04:46:26;;;;;;;2.77;2.07;;;12.60;99.90;;;;;;6279744;22;20502;-52
2021/05/21 04:48:53;;;;;;;4.53;2.50;;;12.70;99.90;;;;;;6280236;22;20421;-56
2021/05/21 04:51:20;;;;;;;2.80;2.30;;;12.70;99.90;;;;;;6279115;22;20474;-51
2021/05/21 04:53:47;;;;;;;3.77;2.00;;;12.70;99.90;;;;;;6279669;22;20443;-49
2021/05/21 04:56:15;;;;;;;3.03;2.40;;;12.70;99.90;;;;;;6278993;22;20413;-53
2021/05/21 04:58:42;;;;;;;4.53;2.40;;;12.70;99.90;;;;;;6280025;22;20417;-52
2021/05/21 05:01:08;;;;;;;3.30;2.73;;;12.80;99.90;;;;;;6278606;22;20421;-52
2021/05/21 05:03:35;;;;;;;2.23;2.03;;;12.80;99.90;;;;;;6275098;22;20906;-47
2021/05/21 05:06:03;;;;;;;3.40;3.03;;;12.80;99.90;;;;;;6278666;22;20542;-54
2021/05/21 05:08:31;;;;;;;2.50;2.23;;;12.80;99.90;;;;;;6279911;22;20417;-50
2021/05/21 05:10:59;;;;;;;2.73;1.90;;;12.90;99.90;;;;;;6279052;22;20707;-47
2021/05/21 05:13:25;;;;;;;3.07;1.80;;;12.90;99.90;;;;;;6279441;22;20683;-50
2021/05/21 05:15:52;;;;;;;2.80;2.60;;;12.90;99.90;;;;;;6278652;22;20413;-50
2021/05/21 05:18:21;;;;;;;2.33;2.13;;;13.00;99.90;;;;;;6279387;22;20465;-51
2021/05/21 05:20:48;;;;;;;3.83;2.70;;;13.00;99.90;;;;;;6279778;22;20855;-53
2021/05/21 05:23:17;;;;;;;6.50;2.30;;;13.10;99.90;;;;;;6280921;22;20421;-52
2021/05/21 05:25:45;;;;;;;2.30;2.10;;;13.10;99.90;;;;;;6279252;22;20484;-52
2021/05/21 05:28:12;;;;;;;2.30;2.10;;;13.10;99.90;;;;;;6278889;22;20417;-54
2021/05/21 05:30:39;;;;;;;2.90;2.23;;;13.20;99.90;;;;;;6278904;22;20755;-48
2021/05/21 05:33:06;;;;;;;2.83;2.27;;;13.20;99.90;;;;;;6279023;22;20417;-56
2021/05/21 05:35:32;;;;;;;2.63;2.43;;;13.40;99.90;;;;;;6279319;22;20723;-57
2021/05/21 05:37:59;;;;;;;3.77;2.50;;;13.50;99.90;;;;;;6278866;22;20392;-57
2021/05/21 05:40:27;;;;;;;4.77;2.53;;;13.50;99.90;;;;;;6279132;22;20747;-53
2021/05/21 05:42:54;;;;;;;2.40;2.20;;;13.50;99.90;;;;;;6279523;22;20427;-54
2021/05/21 05:45:20;;;;;;;8.70;1.93;;;13.50;99.90;;;;;;6278205;22;20421;-54
2021/05/21 05:47:48;;;;;;;2.10;2.00;;;13.50;99.90;;;;;;6279684;22;20424;-54
2021/05/21 05:50:15;;;;;;;2.50;2.30;;;13.60;99.90;;;;;;6278651;22;20416;-48
2021/05/21 05:52:44;;;;;;;3.53;2.43;;;13.60;99.90;;;;;;6278886;22;20448;-52
2021/05/21 05:55:12;;;;;;;2.63;2.43;;;13.70;99.90;;;;;;6278707;22;20427;-51
2021/05/21 05:57:42;;;;;;;4.60;2.50;;;13.80;99.90;;;;;;6279085;22;20447;-50
2021/05/21 06:00:12;;;;;;;5.30;2.93;;;13.70;99.90;;;;;;6278307;22;20424;-52
2021/05/21 06:02:38;;;;;;;2.50;2.20;;;13.60;99.90;;;;;;6276203;22;20417;-52
2021/05/21 06:05:22;;;;;;;2.50;2.30;;;13.50;99.90;;;;;;6276781;22;20453;-56
2021/05/21 06:07:49;;;;;;;7.87;3.07;;;13.50;99.90;;;;;;6279860;22;20444;-49
2021/05/21 06:10:15;;;;;;;2.40;2.20;;;13.50;99.90;;;;;;6278665;22;20422;-50
2021/05/21 06:12:47;;;;;;;3.27;2.30;;;13.50;99.90;;;;;;6278516;22;20395;-50
2021/05/21 06:15:17;;;;;;;3.40;2.90;;;13.50;99.90;;;;;;6279238;22;20420;-48
2021/05/21 06:17:46;;;;;;;2.90;2.13;;;13.60;99.90;;;;;;6279671;22;20425;-48
2021/05/21 06:20:13;;;;;;;3.33;2.13;;;13.70;99.90;;;;;;6280731;22;20448;-47
2021/05/21 06:22:40;;;;;;;3.73;2.40;;;13.80;99.90;;;;;;6279108;22;20474;-51
2021/05/21 06:25:09;;;;;;;4.17;2.80;;;13.80;99.90;;;;;;6278768;22;20467;-47
2021/05/21 06:27:38;;;;;;;5.70;2.60;;;13.90;99.90;;;;;;6279100;22;20708;-52
2021/05/21 06:30:08;;;;;;;2.70;2.50;;;14.00;99.90;;;;;;6277913;22;20849;-51
2021/05/21 06:32:35;;;;;;;3.17;2.60;;;13.90;99.90;;;;;;6278647;22;20800;-54
2021/05/21 06:35:01;;;;;;;2.77;2.57;;;13.90;99.90;;;;;;6278532;22;20735;-53
2021/05/21 06:37:29;;;;;;;2.50;2.30;;;14.10;99.90;;;;;;6279344;22;20419;-56
2021/05/21 06:39:56;;;;;;;6.30;2.90;;;14.50;99.90;;;;;;6279539;22;20428;-55
2021/05/21 06:42:23;;;;;;;5.30;2.47;;;14.60;99.90;;;;;;6279604;22;20903;-54
2021/05/21 06:44:49;;;;;;;4.43;2.83;;;14.60;99.90;;;;;;6278491;22;20494;-54
2021/05/21 06:47:17;;;;;;;5.17;2.70;;;14.40;99.90;;;;;;6278993;22;20784;-54
2021/05/21 06:49:48;;;;;;;6.03;2.77;;;14.40;99.90;;;;;;6279164;22;20412;-50
2021/05/21 06:52:18;;;;;;;3.43;2.30;;;14.80;99.90;;;;;;6278711;22;20421;-50
2021/05/21 06:54:45;;;;;;;5.60;2.53;;;14.80;99.30;;;;;;6281319;22;20432;-49
2021/05/21 06:57:12;;;;;;;3.77;2.73;;;14.60;99.90;;;;;;6282434;22;20398;-51
2021/05/21 06:59:38;;;;;;;6.10;2.97;;;15.00;99.90;;;;;;6282174;22;20424;-52
2021/05/21 07:02:10;;;;;;;4.60;2.57;;;15.40;97.60;;;;;;6281385;22;20424;-52
2021/05/21 07:04:38;;;;;;;4.17;2.63;;;15.70;96.40;;;;;;6277409;22;20493;-46
2021/05/21 07:07:04;;;;;;;3.63;2.83;;;15.60;95.80;;;;;;6281690;22;20542;-48
2021/05/21 07:09:31;;;;;;;3.07;2.30;;;15.20;95.80;;;;;;6282223;22;20538;-46
2021/05/21 07:12:01;;;;;;;8.83;3.20;;;14.90;97.50;;;;;;6281275;22;20424;-46
2021/05/21 07:14:27;;;;;;;6.20;3.00;;;14.70;98.10;;;;;;6281935;22;20828;-48
2021/05/21 07:16:54;;;;;;;11.33;3.70;;;14.50;98.80;;;;;;6281610;22;20420;-50
2021/05/21 07:19:20;;;;;;;3.37;2.90;;;14.50;99.90;;;;;;6282160;22;20797;-50
2021/05/21 07:21:49;;;;;;;3.03;2.37;;;14.40;99.50;;;;;;6281820;22;20412;-47
2021/05/21 07:24:16;;;;;;;5.70;4.10;;;14.70;99.90;;;;;;6282158;22;20838;-50
2021/05/21 07:26:42;;;;;;;8.53;3.10;;;15.30;99.20;;;;;;6281998;22;20430;-55
2021/05/21 07:29:10;;;;;;;3.93;2.33;;;15.30;96.30;;;;;;6282166;22;20846;-53
2021/05/21 07:31:37;;;;;;;6.63;3.60;;;14.70;97.30;;;;;;6281190;22;20417;-48
2021/05/21 07:34:04;;;;;;;9.77;4.10;;;14.40;98.00;;;;;;6282149;22;20671;-50
2021/05/21 07:36:31;;;;;;;7.63;3.93;;;14.00;98.40;;;;;;6282092;22;20413;-50
2021/05/21 07:38:59;;;;;;;7.00;3.17;;;14.10;99.20;;;;;;6281788;22;20421;-49
2021/05/21 07:41:27;;;;;;;9.90;3.50;;;14.40;98.10;;;;;;6281279;22;20417;-53
2021/05/21 07:43:54;;;;;;;5.77;3.10;;;14.90;93.90;;;;;;6281945;22;20515;-48
2021/05/21 07:46:21;;;;;;;9.47;2.70;;;15.20;91.80;;;;;;6281414;22;20502;-50
2021/05/21 07:48:49;;;;;;;9.80;3.60;;;15.20;91.20;;;;;;6281771;22;20424;-49
2021/05/21 07:51:15;;;;;;;4.90;3.07;;;14.80;91.60;;;;;;6281415;22;20506;-46
2021/05/21 07:53:42;;;;;;;11.83;3.90;;;14.40;92.50;;;;;;6282098;22;20444;-47
2021/05/21 07:56:13;;;;;;;8.90;3.90;;;13.90;94.30;;;;;;6282082;22;20419;-47
2021/05/21 07:58:39;;;;;;;8.30;3.80;;;13.80;96.20;;;;;;6282002;22;20417;-46
2021/05/21 08:01:06;;;;;;;9.00;4.10;;;13.80;96.40;;;;;;6281528;22;20417;-48
2021/05/21 08:03:36;;;;;;;6.20;3.03;;;13.90;96.30;;;;;;6277121;22;20476;-46
2021/05/21 08:06:03;;;;;;;6.93;3.50;;;13.80;96.00;;;;;;6280607;22;20911;-50
2021/05/21 08:08:36;;;;;;;7.83;4.17;;;13.80;96.70;;;;;;6280484;22;20463;-53
2021/05/21 08:11:03;;;;;;;9.87;3.30;;;14.60;94.20;;;;;;6280771;22;20395;-53
2021/05/21 08:13:30;;;;;;;3.70;3.20;;;15.10;91.10;;;;;;6280349;22;20764;-51
2021/05/21 08:15:57;;;;;;;6.43;2.73;;;16.20;85.70;;;;;;6279447;22;20413;-51
2021/05/21 08:18:24;;;;;;;5.77;3.27;;;17.00;79.70;;;;;;6279782;22;20396;-51
2021/05/21 08:20:51;;;;;;;7.97;2.90;;;17.80;74.20;;;;;;6279456;22;20420;-55
2021/05/21 08:23:17;;;;;;;4.83;3.07;;;18.10;68.50;;;;;;6279114;22;20764;-49
2021/05/21 08:25:47;;;;;;;4.77;3.20;;;17.80;65.80;;;;;;6279399;22;20912;-52
2021/05/21 08:28:14;;;;;;;7.00;4.57;;;17.70;64.60;;;;;;6279084;22;20423;-53
2021/05/21 08:30:43;;;;;;;5.03;3.03;;;17.30;64.80;;;;;;6278783;22;20420;-55
2021/05/21 08:33:10;;;;;;;5.20;3.00;;;17.30;65.20;;;;;;6279775;22;20414;-53
2021/05/21 08:35:37;;;;;;;6.90;3.73;;;17.00;66.20;;;;;;6280405;22;20860;-56
2021/05/21 08:38:03;;;;;;;6.80;3.80;;;16.70;66.50;;;;;;6282606;22;20424;-48
2021/05/21 08:40:40;;;;;;;5.10;3.13;;;16.90;68.20;;;;;;6289287;22;20417;-50
2021/05/21 08:43:10;;;;;;;8.50;3.57;;;17.30;68.30;;;;;;6280249;22;20428;-55
2021/05/21 08:45:37;;;;;;;6.77;3.40;;;17.40;66.90;;;;;;6279538;22;20864;-49
2021/05/21 08:48:13;;;;;;;6.10;3.40;;;17.50;66.30;;;;;;6279730;22;20428;-51
2021/05/21 08:50:40;;;;;;;4.87;3.73;;;17.80;64.40;;;;;;6279056;22;20482;-50
2021/05/21 08:53:06;;;;;;;7.90;3.30;;;18.20;62.70;;;;;;6279893;22;20422;-49
2021/05/21 08:55:33;;;;;;;6.10;3.00;;;18.60;60.20;;;;;;6279416;22;20520;-53
2021/05/21 08:57:59;;;;;;;9.00;3.73;;;18.60;58.80;;;;;;6279718;22;20391;-53
2021/05/21 09:00:29;;;;;;;5.63;2.93;;;18.50;57.70;;;;;;6279864;22;20388;-55
2021/05/21 09:02:56;;;;;;;7.50;3.80;;;18.50;57.90;;;;;;6275735;22;20452;-52
2021/05/21 09:05:27;;;;;;;6.90;3.43;;;18.90;57.10;;;;;;6278518;22;20417;-51
2021/05/21 09:07:55;;;;;;;7.53;3.30;;;18.90;56.10;;;;;;6279808;22;20717;-54
2021/05/21 09:10:23;;;;;;;6.73;3.43;;;18.30;55.30;;;;;;6279230;22;20392;-53
2021/05/21 09:12:51;;;;;;;9.47;3.30;;;16.80;56.80;;;;;;6278189;22;20470;-48
2021/05/21 09:15:19;;;;;;;10.30;3.60;;;15.90;59.90;;;;;;6279104;22;20905;-47
2021/05/21 09:17:57;;;;;;;9.47;4.17;;;15.60;61.00;;;;;;6279236;22;20417;-47
2021/05/21 10:01:10;;;;;;;8.53;4.03;;;17.00;55.20;;;;;;6279358;22;20872;-50
2021/05/21 10:03:38;;;;;;;8.90;3.60;;;17.40;55.70;;;;;;6275535;22;20451;-53
2021/05/21 10:06:08;;;;;;;6.40;4.03;;;18.10;55.00;;;;;;6278024;22;20441;-51
2021/05/21 10:08:34;;;;;;;9.67;3.50;;;18.40;53.20;;;;;;6278964;22;20421;-51
2021/05/21 10:11:03;;;;;;;7.30;3.23;;;18.60;53.20;;;;;;6277353;22;20730;-52
2021/05/21 10:13:31;;;;;;;7.10;4.30;;;19.30;53.50;;;;;;6278182;22;20423;-53
2021/05/21 10:16:01;;;;;;;8.20;3.70;;;19.10;51.40;;;;;;6278386;22;20429;-56
2021/05/21 10:18:34;;;;;;;5.80;3.40;;;19.20;52.50;;;;;;6279304;22;20714;-53
2021/05/21 10:21:01;;;;;;;7.47;4.00;;;19.30;50.60;;;;;;6278265;22;20425;-50
2021/05/21 10:23:35;;;;;;;10.70;3.80;;;18.90;49.80;;;;;;6279274;22;20424;-50
2021/05/21 10:26:08;;;;;;;5.50;3.17;;;19.10;51.30;;;;;;6278594;22;20901;-55
2021/05/21 10:28:41;;;;;;;7.87;3.70;;;19.40;49.10;;;;;;6278460;22;20417;-54
2021/05/21 10:31:12;;;;;;;6.43;3.73;;;19.30;48.40;;;;;;6278611;22;20425;-49
2021/05/21 10:33:43;;;;;;;8.50;3.47;;;18.20;48.60;;;;;;6278933;22;20417;-53
2021/05/21 10:36:29;;;;;;;6.43;3.80;;;18.00;50.30;;;;;;6278657;22;20471;-54
2021/05/21 10:39:05;;;;;;;10.47;3.40;;;17.90;50.70;;;;;;6278567;22;20421;-52
2021/05/21 10:41:32;;;;;;;8.87;2.93;;;16.90;50.70;;;;;;6278481;22;20416;-47
2021/05/21 10:44:01;;;;;;;6.50;3.20;;;16.30;52.40;;;;;;6278567;22;20421;-48
2021/05/21 10:46:32;;;;;;;8.37;4.00;;;16.30;53.30;;;;;;6278487;22;20498;-53
2021/05/21 10:49:00;;;;;;;12.90;4.10;;;16.70;53.90;;;;;;6278626;22;20514;-55
2021/05/21 10:51:31;;;;;;;9.03;3.43;;;17.00;54.60;;;;;;6278632;22;20702;-50
2021/05/21 10:54:32;;;;;;;6.83;3.40;;;17.90;53.00;;;;;;6279056;22;20425;-54
2021/05/21 10:57:17;;;;;;;4.87;3.13;;;18.40;53.00;;;;;;6278455;22;20511;-54
2021/05/21 10:59:50;;;;;;;7.93;3.70;;;19.60;51.30;;;;;;6276943;22;20509;-54
2021/05/21 11:02:17;;;;;;;4.93;3.00;;;19.70;50.30;;;;;;6278426;22;20723;-52
2021/05/21 11:04:44;;;;;;;5.37;4.07;;;20.20;49.40;;;;;;6275051;22;20421;-51
2021/05/21 11:07:30;;;;;;;10.07;4.10;;;20.00;47.80;;;;;;6277892;22;20449;-56
2021/05/21 11:09:57;;;;;;;7.30;4.17;;;20.10;48.20;;;;;;6278921;22;20489;-53
2021/05/21 11:12:43;;;;;;;7.10;4.17;;;19.20;47.00;;;;;;6277981;22;20478;-49
2021/05/21 11:15:44;;;;;;;5.53;3.30;;;18.90;48.20;;;;;;6278732;22;20472;-52
2021/05/21 11:18:27;;;;;;;8.27;3.77;;;19.70;48.80;;;;;;6277522;22;20413;-56
2021/05/21 11:21:03;;;;;;;7.13;3.00;;;19.90;48.30;;;;;;6278847;22;20439;-52
2021/05/21 11:23:35;;;;;;;6.43;3.43;;;20.50;47.10;;;;;;6278541;22;20420;-52
2021/05/21 11:26:04;;;;;;;7.57;3.90;;;20.20;45.70;;;;;;6278505;22;20507;-53
2021/05/21 11:28:37;;;;;;;7.20;3.63;;;19.20;45.60;;;;;;6278319;22;20424;-53
2021/05/21 11:31:08;;;;;;;4.87;2.90;;;18.10;47.60;;;;;;6279078;22;20424;-50
2021/05/21 11:33:35;;;;;;;7.43;4.20;;;17.70;48.90;;;;;;6278892;22;20848;-49
2021/05/21 11:36:05;;;;;;;7.60;3.23;;;18.20;49.70;;;;;;6278894;22;20841;-51
2021/05/21 11:38:36;;;;;;;7.33;3.50;;;18.30;49.30;;;;;;6278872;22;20417;-55
2021/05/21 11:41:04;;;;;;;5.60;3.20;;;18.80;49.10;;;;;;6280632;22;20424;-53
2021/05/21 11:43:33;;;;;;;7.03;3.47;;;19.30;48.70;;;;;;6280152;22;20421;-56
2021/05/21 11:46:00;;;;;;;10.67;4.47;;;19.80;48.30;;;;;;6280456;22;20502;-53
2021/05/21 11:48:33;;;;;;;9.47;3.30;;;19.50;47.80;;;;;;6280337;22;20416;-57
2021/05/21 11:51:08;;;;;;;4.37;3.10;;;19.20;47.80;;;;;;6280319;22;20417;-56
2021/05/21 11:53:46;;;;;;;5.57;3.60;;;19.90;48.40;;;;;;6280158;22;20440;-55
2021/05/21 11:56:19;;;;;;;6.20;3.60;;;20.30;46.40;;;;;;6280597;22;20700;-54
2021/05/21 11:58:50;;;;;;;5.80;3.33;;;20.80;45.30;;;;;;6279846;22;20445;-56
2021/05/21 12:01:17;;;;;;;6.63;3.60;;;20.40;44.50;;;;;;6280340;22;20417;-53
2021/05/21 12:03:43;;;;;;;8.67;3.27;;;20.50;44.80;;;;;;6274337;22;20730;-56
2021/05/21 12:06:15;;;;;;;6.60;3.63;;;20.50;45.30;;;;;;6280128;22;20449;-54
2021/05/21 12:08:46;;;;;;;7.00;3.70;;;21.10;45.50;;;;;;6279775;22;20849;-55
2021/05/21 12:11:13;;;;;;;7.60;3.90;;;20.90;44.50;;;;;;6280258;22;20421;-54
2021/05/21 12:13:49;;;;;;;8.63;3.80;;;20.90;44.30;;;;;;6279615;22;20421;-54
2021/05/21 12:16:18;;;;;;;6.53;3.87;;;20.90;45.20;;;;;;6279606;22;20421;-56
2021/05/21 12:18:48;;;;;;;6.83;3.20;;;21.10;42.90;;;;;;6279239;22;20528;-48
2021/05/21 12:21:21;;;;;;;5.63;3.80;;;21.00;43.40;;;;;;6280506;22;20424;-55
2021/05/21 12:23:52;;;;;;;6.77;3.50;;;21.50;43.90;;;;;;6280015;22;20396;-51
2021/05/21 12:26:19;;;;;;;5.60;3.10;;;20.50;42.60;;;;;;6279988;22;20467;-49
2021/05/21 12:28:48;;;;;;;6.43;3.33;;;20.70;44.30;;;;;;6279543;22;20426;-50
2021/05/21 12:31:17;;;;;;;4.57;3.30;;;20.80;44.40;;;;;;6280158;22;20421;-54
2021/05/21 12:33:44;;;;;;;11.90;3.80;;;20.30;43.70;;;;;;6279877;22;20460;-53
2021/05/21 12:36:15;;;;;;;9.80;3.10;;;20.10;44.60;;;;;;6285863;22;20417;-51
2021/05/21 12:38:48;;;;;;;7.20;3.93;;;20.40;44.40;;;;;;6279687;22;20409;-47
2021/05/21 12:41:15;;;;;;;5.73;2.90;;;20.20;44.30;;;;;;6279890;22;20417;-55
2021/05/21 12:43:43;;;;;;;11.33;3.37;;;19.70;44.30;;;;;;6279575;22;20520;-51
2021/05/21 12:46:10;;;;;;;7.07;3.63;;;19.70;45.30;;;;;;6278647;22;20514;-53
2021/05/21 12:48:41;;;;;;;12.57;3.40;;;19.20;45.50;;;;;;6279432;22;20726;-52
2021/05/21 12:51:22;;;;;;;7.47;3.80;;;18.60;46.30;;;;;;6279562;22;20478;-50
2021/05/21 12:53:50;;;;;;;8.07;3.90;;;18.20;47.50;;;;;;6279564;22;20979;-50
2021/05/21 12:56:36;;;;;;;12.43;3.80;;;18.30;48.70;;;;;;6279700;22;20409;-50
2021/05/21 12:59:05;;;;;;;8.20;3.47;;;19.10;48.60;;;;;;6278770;22;20755;-51
2021/05/21 13:01:32;;;;;;;9.17;3.20;;;19.90;47.10;;;;;;6279728;22;20440;-49
2021/05/21 13:04:00;;;;;;;6.20;3.70;;;19.20;45.20;;;;;;6275236;22;20470;-54
2021/05/21 13:06:28;;;;;;;9.87;3.07;;;18.70;45.80;;;;;;6279672;22;20464;-50
2021/05/21 13:08:58;;;;;;;6.93;3.30;;;18.80;46.60;;;;;;6279697;22;20910;-53
2021/05/21 13:11:24;;;;;;;8.83;4.10;;;19.20;46.70;;;;;;6280485;22;20421;-52
2021/05/21 13:13:58;;;;;;;8.07;3.60;;;19.30;46.90;;;;;;6279080;22;20740;-51
2021/05/21 13:16:49;;;;;;;6.50;3.20;;;19.70;46.90;;;;;;6278529;22;20466;-53
2021/05/21 13:19:30;;;;;;;7.77;3.20;;;20.40;46.70;;;;;;6279512;22;20854;-50
2021/05/21 13:22:11;;;;;;;7.87;3.70;;;19.50;45.30;;;;;;6279861;22;20413;-57
2021/05/21 13:24:43;;;;;;;6.13;3.10;;;19.10;46.60;;;;;;6278514;22;20423;-56
2021/05/21 13:27:14;;;;;;;8.33;3.37;;;18.60;46.10;;;;;;6278908;22;20449;-52
2021/05/21 13:29:42;;;;;;;9.50;3.73;;;18.30;46.00;;;;;;6277275;22;20420;-53
2021/05/21 13:32:11;;;;;;;10.63;3.27;;;18.40;47.00;;;;;;6276064;22;20392;-52
2021/05/21 13:34:41;;;;;;;8.23;3.63;;;19.30;47.00;;;;;;6278023;22;20511;-53